sensor_id;sensor_type;location;lat;lon;timestamp;pressure;altitude;pressure_sealevel;temperature;humidity
10638;BME280;47007;49.252;8.904;2022-10-22T00:01:40;99560.53;;;14.36;100.00
10638;BME280;47007;49.252;8.904;2022-10-22T00:04:06;99574.91;;;14.42;100.00
10638;BME280;47007;49.252;8.904;2022-10-22T00:06:33;99569.28;;;14.50;100.00
10638;BME280;47007;49.252;8.904;2022-10-22T00:09:00;99556.16;;;14.49;100.00
10638;BME280;47007;49.252;8.904;2022-10-22T00:11:27;99506.47;;;14.23;100.00
10638;BME280;47007;49.252;8.904;2022-10-22T00:13:54;99540.22;;;14.42;100.00
10638;BME280;47007;49.252;8.904;2022-10-22T00:16:20;99529.28;;;14.50;100.00
10638;BME280;47007;49.252;8.904;2022-10-22T00:18:47;99538.09;;;14.57;100.00
10638;BME280;47007;49.252;8.904;2022-10-22T00:21:14;99483.63;;;14.40;100.00
10638;BME280;47007;49.252;8.904;2022-10-22T00:23:41;99494.53;;;14.63;100.00
10638;BME280;47007;49.252;8.904;2022-10-22T00:26:08;99484.28;;;14.60;100.00
10638;BME280;47007;49.252;8.904;2022-10-22T00:28:36;99502.91;;;14.42;100.00
10638;BME280;47007;49.252;8.904;2022-10-22T00:31:03;99523.34;;;14.48;100.00
10638;BME280;47007;49.252;8.904;2022-10-22T00:33:30;99538.22;;;14.31;100.00
10638;BME280;47007;49.252;8.904;2022-10-22T00:35:57;99541.59;;;14.13;100.00
10638;BME280;47007;49.252;8.904;2022-10-22T00:38:24;99571.91;;;14.19;100.00
10638;BME280;47007;49.252;8.904;2022-10-22T00:40:51;99543.94;;;13.96;100.00
10638;BME280;47007;49.252;8.904;2022-10-22T00:43:19;99600.63;;;14.17;100.00
10638;BME280;47007;49.252;8.904;2022-10-22T00:45:46;99594.72;;;14.08;100.00
10638;BME280;47007;49.252;8.904;2022-10-22T00:50:42;99597.75;;;14.12;100.00
10638;BME280;47007;49.252;8.904;2022-10-22T00:53:33;99599.38;;;14.19;100.00
10638;BME280;47007;49.252;8.904;2022-10-22T00:56:02;99625.59;;;14.29;100.00
10638;BME280;47007;49.252;8.904;2022-10-22T00:58:30;99619.44;;;14.28;100.00
10638;BME280;47007;49.252;8.904;2022-10-22T01:00:58;99593.66;;;14.16;100.00
10638;BME280;47007;49.252;8.904;2022-10-22T01:03:25;99583.59;;;14.18;100.00
10638;BME280;47007;49.252;8.904;2022-10-22T01:05:55;99596.44;;;14.34;100.00
10638;BME280;47007;49.252;8.904;2022-10-22T01:08:42;99598.31;;;14.33;100.00
10638;BME280;47007;49.252;8.904;2022-10-22T01:11:26;99592.97;;;14.33;100.00
10638;BME280;47007;49.252;8.904;2022-10-22T01:14:12;99562.06;;;14.19;100.00
10638;BME280;47007;49.252;8.904;2022-10-22T01:17:04;99584.97;;;14.33;100.00
10638;BME280;47007;49.252;8.904;2022-10-22T01:22:19;99566.69;;;14.37;100.00
10638;BME280;47007;49.252;8.904;2022-10-22T01:24:59;99569.78;;;14.41;100.00
10638;BME280;47007;49.252;8.904;2022-10-22T01:27:52;99576.94;;;14.40;100.00
10638;BME280;47007;49.252;8.904;2022-10-22T01:30:23;99557.91;;;14.30;100.00
10638;BME280;47007;49.252;8.904;2022-10-22T01:32:56;99568.53;;;14.43;100.00
10638;BME280;47007;49.252;8.904;2022-10-22T01:35:28;99560.31;;;14.38;100.00
10638;BME280;47007;49.252;8.904;2022-10-22T01:38:03;99563.63;;;14.40;100.00
10638;BME280;47007;49.252;8.904;2022-10-22T01:40:31;99543.34;;;14.26;100.00
10638;BME280;47007;49.252;8.904;2022-10-22T01:43:01;99559.41;;;14.19;100.00
10638;BME280;47007;49.252;8.904;2022-10-22T01:45:29;99589.81;;;14.05;100.00
10638;BME280;47007;49.252;8.904;2022-10-22T01:53:54;99592.06;;;14.08;100.00
10638;BME280;47007;49.252;8.904;2022-10-22T01:56:33;99601.28;;;14.06;100.00
10638;BME280;47007;49.252;8.904;2022-10-22T01:59:13;99617.88;;;14.08;100.00
10638;BME280;47007;49.252;8.904;2022-10-22T02:01:50;99616.09;;;13.95;100.00
10638;BME280;47007;49.252;8.904;2022-10-22T02:04:26;99614.66;;;13.92;100.00
10638;BME280;47007;49.252;8.904;2022-10-22T02:06:58;99621.22;;;13.90;100.00
10638;BME280;47007;49.252;8.904;2022-10-22T02:09:27;99630.41;;;14.07;100.00
10638;BME280;47007;49.252;8.904;2022-10-22T02:11:57;99645.53;;;14.20;100.00
10638;BME280;47007;49.252;8.904;2022-10-22T02:14:27;99643.22;;;14.30;100.00
10638;BME280;47007;49.252;8.904;2022-10-22T02:16:57;99641.16;;;14.32;100.00
10638;BME280;47007;49.252;8.904;2022-10-22T02:19:27;99635.38;;;14.35;100.00
10638;BME280;47007;49.252;8.904;2022-10-22T02:21:55;99636.84;;;14.44;100.00
10638;BME280;47007;49.252;8.904;2022-10-22T02:24:23;99575.41;;;14.19;100.00
10638;BME280;47007;49.252;8.904;2022-10-22T02:29:48;99575.63;;;14.11;100.00
10638;BME280;47007;49.252;8.904;2022-10-22T02:32:23;99582.38;;;14.14;100.00
10638;BME280;47007;49.252;8.904;2022-10-22T02:34:53;99591.13;;;14.27;100.00
10638;BME280;47007;49.252;8.904;2022-10-22T02:37:21;99580.66;;;14.32;100.00
10638;BME280;47007;49.252;8.904;2022-10-22T02:39:49;99560.59;;;14.23;100.00
10638;BME280;47007;49.252;8.904;2022-10-22T02:42:17;99564.06;;;14.24;100.00
10638;BME280;47007;49.252;8.904;2022-10-22T02:44:43;99543.00;;;14.16;100.00
10638;BME280;47007;49.252;8.904;2022-10-22T02:47:10;99523.59;;;14.09;100.00
10638;BME280;47007;49.252;8.904;2022-10-22T02:49:37;99564.06;;;14.30;100.00
10638;BME280;47007;49.252;8.904;2022-10-22T02:52:03;99560.38;;;14.31;100.00
10638;BME280;47007;49.252;8.904;2022-10-22T02:54:30;99535.16;;;14.27;100.00
10638;BME280;47007;49.252;8.904;2022-10-22T02:56:57;99538.16;;;14.37;100.00
10638;BME280;47007;49.252;8.904;2022-10-22T02:59:23;99519.94;;;14.41;100.00
10638;BME280;47007;49.252;8.904;2022-10-22T03:01:50;99503.72;;;14.43;100.00
10638;BME280;47007;49.252;8.904;2022-10-22T03:04:16;99481.97;;;14.46;100.00
10638;BME280;47007;49.252;8.904;2022-10-22T03:06:43;99470.19;;;14.53;100.00
10638;BME280;47007;49.252;8.904;2022-10-22T03:09:10;99455.56;;;14.62;100.00
10638;BME280;47007;49.252;8.904;2022-10-22T03:11:36;99496.25;;;14.51;100.00
10638;BME280;47007;49.252;8.904;2022-10-22T03:14:03;99484.84;;;14.37;100.00
10638;BME280;47007;49.252;8.904;2022-10-22T03:16:30;99484.97;;;14.18;100.00
10638;BME280;47007;49.252;8.904;2022-10-22T03:18:56;99508.91;;;14.24;100.00
10638;BME280;47007;49.252;8.904;2022-10-22T03:24:09;99497.63;;;14.29;100.00
10638;BME280;47007;49.252;8.904;2022-10-22T03:26:38;99504.91;;;14.47;100.00
10638;BME280;47007;49.252;8.904;2022-10-22T03:29:08;99516.38;;;14.47;100.00
10638;BME280;47007;49.252;8.904;2022-10-22T03:31:35;99507.09;;;14.56;100.00
10638;BME280;47007;49.252;8.904;2022-10-22T03:34:02;99475.00;;;14.38;100.00
10638;BME280;47007;49.252;8.904;2022-10-22T03:36:28;99495.78;;;14.61;100.00
10638;BME280;47007;49.252;8.904;2022-10-22T03:38:55;99486.03;;;14.73;100.00
10638;BME280;47007;49.252;8.904;2022-10-22T03:41:22;99486.81;;;14.80;100.00
10638;BME280;47007;49.252;8.904;2022-10-22T03:43:48;99490.34;;;14.74;100.00
10638;BME280;47007;49.252;8.904;2022-10-22T03:46:18;99504.16;;;14.64;100.00
10638;BME280;47007;49.252;8.904;2022-10-22T03:48:45;99499.03;;;14.63;100.00
10638;BME280;47007;49.252;8.904;2022-10-22T03:51:12;99505.03;;;14.58;100.00
10638;BME280;47007;49.252;8.904;2022-10-22T03:53:38;99533.16;;;14.54;100.00
10638;BME280;47007;49.252;8.904;2022-10-22T03:56:09;99549.06;;;14.43;100.00
10638;BME280;47007;49.252;8.904;2022-10-22T03:58:38;99561.13;;;14.38;100.00
10638;BME280;47007;49.252;8.904;2022-10-22T04:01:10;99570.22;;;14.31;100.00
10638;BME280;47007;49.252;8.904;2022-10-22T04:03:37;99570.06;;;14.19;100.00
10638;BME280;47007;49.252;8.904;2022-10-22T04:06:06;99571.31;;;14.10;100.00
10638;BME280;47007;49.252;8.904;2022-10-22T04:08:33;99586.75;;;14.01;100.00
10638;BME280;47007;49.252;8.904;2022-10-22T04:11:00;99497.19;;;13.43;100.00
10638;BME280;47007;49.252;8.904;2022-10-22T04:13:27;99579.03;;;13.74;100.00
10638;BME280;47007;49.252;8.904;2022-10-22T04:15:54;99588.47;;;13.76;100.00
10638;BME280;47007;49.252;8.904;2022-10-22T04:18:22;99608.34;;;13.74;100.00
10638;BME280;47007;49.252;8.904;2022-10-22T04:20:50;99609.81;;;13.56;100.00
10638;BME280;47007;49.252;8.904;2022-10-22T04:23:18;99576.69;;;13.33;100.00
10638;BME280;47007;49.252;8.904;2022-10-22T04:25:44;99612.69;;;13.48;100.00
10638;BME280;47007;49.252;8.904;2022-10-22T04:28:11;99608.41;;;13.34;100.00
10638;BME280;47007;49.252;8.904;2022-10-22T04:30:38;99560.06;;;12.91;100.00
10638;BME280;47007;49.252;8.904;2022-10-22T04:33:04;99636.88;;;13.27;100.00
10638;BME280;47007;49.252;8.904;2022-10-22T04:35:31;99646.28;;;13.16;100.00
10638;BME280;47007;49.252;8.904;2022-10-22T04:37:57;99654.66;;;13.07;100.00
10638;BME280;47007;49.252;8.904;2022-10-22T04:40:24;99629.25;;;12.91;100.00
10638;BME280;47007;49.252;8.904;2022-10-22T04:42:51;99654.81;;;12.99;100.00
10638;BME280;47007;49.252;8.904;2022-10-22T04:45:17;99658.91;;;12.88;100.00
10638;BME280;47007;49.252;8.904;2022-10-22T04:47:44;99643.53;;;12.70;100.00
10638;BME280;47007;49.252;8.904;2022-10-22T04:50:11;99659.28;;;12.78;100.00
10638;BME280;47007;49.252;8.904;2022-10-22T04:52:37;99663.78;;;12.78;100.00
10638;BME280;47007;49.252;8.904;2022-10-22T04:55:04;99661.94;;;12.72;100.00
10638;BME280;47007;49.252;8.904;2022-10-22T04:57:31;99657.22;;;12.61;100.00
10638;BME280;47007;49.252;8.904;2022-10-22T04:59:58;99658.19;;;12.53;100.00
10638;BME280;47007;49.252;8.904;2022-10-22T05:02:24;99636.25;;;12.38;100.00
10638;BME280;47007;49.252;8.904;2022-10-22T05:04:51;99644.25;;;12.38;100.00
10638;BME280;47007;49.252;8.904;2022-10-22T05:07:18;99652.06;;;12.46;100.00
10638;BME280;47007;49.252;8.904;2022-10-22T05:09:44;99604.31;;;12.18;100.00
10638;BME280;47007;49.252;8.904;2022-10-22T05:12:11;99650.38;;;12.38;100.00
10638;BME280;47007;49.252;8.904;2022-10-22T05:14:38;99673.94;;;12.48;100.00
10638;BME280;47007;49.252;8.904;2022-10-22T05:17:10;99673.28;;;12.39;100.00
10638;BME280;47007;49.252;8.904;2022-10-22T05:19:37;99635.31;;;12.04;100.00
10638;BME280;47007;49.252;8.904;2022-10-22T05:22:04;99684.28;;;12.30;100.00
10638;BME280;47007;49.252;8.904;2022-10-22T05:24:32;99683.22;;;12.24;100.00
10638;BME280;47007;49.252;8.904;2022-10-22T05:26:59;99692.06;;;12.38;100.00
10638;BME280;47007;49.252;8.904;2022-10-22T05:29:26;99673.41;;;12.24;100.00
10638;BME280;47007;49.252;8.904;2022-10-22T05:31:53;99697.81;;;12.35;100.00
10638;BME280;47007;49.252;8.904;2022-10-22T05:34:20;99697.38;;;12.31;100.00
10638;BME280;47007;49.252;8.904;2022-10-22T05:36:47;99680.09;;;12.14;100.00
10638;BME280;47007;49.252;8.904;2022-10-22T05:39:13;99674.91;;;11.99;100.00
10638;BME280;47007;49.252;8.904;2022-10-22T05:41:40;99702.44;;;12.19;100.00
10638;BME280;47007;49.252;8.904;2022-10-22T05:44:10;99641.31;;;11.78;100.00
10638;BME280;47007;49.252;8.904;2022-10-22T05:46:37;99693.56;;;12.06;100.00
10638;BME280;47007;49.252;8.904;2022-10-22T05:49:06;99698.25;;;12.04;100.00
10638;BME280;47007;49.252;8.904;2022-10-22T05:51:35;99686.16;;;12.01;100.00
10638;BME280;47007;49.252;8.904;2022-10-22T05:54:05;99702.19;;;12.14;100.00
10638;BME280;47007;49.252;8.904;2022-10-22T05:56:33;99697.22;;;12.05;100.00
10638;BME280;47007;49.252;8.904;2022-10-22T05:59:00;99710.72;;;12.03;100.00
10638;BME280;47007;49.252;8.904;2022-10-22T06:01:33;99715.81;;;11.98;100.00
10638;BME280;47007;49.252;8.904;2022-10-22T06:04:06;99739.28;;;12.01;100.00
10638;BME280;47007;49.252;8.904;2022-10-22T06:06:36;99728.94;;;12.13;100.00
10638;BME280;47007;49.252;8.904;2022-10-22T06:09:33;99737.06;;;12.33;100.00
10638;BME280;47007;49.252;8.904;2022-10-22T06:12:02;99735.75;;;12.22;100.00
10638;BME280;47007;49.252;8.904;2022-10-22T06:14:29;99759.81;;;12.14;100.00
10638;BME280;47007;49.252;8.904;2022-10-22T06:16:58;99758.97;;;12.07;100.00
10638;BME280;47007;49.252;8.904;2022-10-22T06:19:25;99760.25;;;12.17;100.00
10638;BME280;47007;49.252;8.904;2022-10-22T06:21:52;99765.84;;;12.29;100.00
10638;BME280;47007;49.252;8.904;2022-10-22T06:24:19;99763.44;;;12.34;100.00
10638;BME280;47007;49.252;8.904;2022-10-22T06:26:49;99767.50;;;12.37;100.00
10638;BME280;47007;49.252;8.904;2022-10-22T06:29:16;99769.44;;;12.15;100.00
10638;BME280;47007;49.252;8.904;2022-10-22T06:31:43;99757.34;;;12.12;100.00
10638;BME280;47007;49.252;8.904;2022-10-22T06:34:11;99785.84;;;12.25;100.00
10638;BME280;47007;49.252;8.904;2022-10-22T06:36:38;99791.78;;;12.27;100.00
10638;BME280;47007;49.252;8.904;2022-10-22T06:39:10;99725.50;;;11.84;100.00
10638;BME280;47007;49.252;8.904;2022-10-22T06:41:37;99796.91;;;12.29;100.00
10638;BME280;47007;49.252;8.904;2022-10-22T06:44:04;99790.41;;;12.38;100.00
10638;BME280;47007;49.252;8.904;2022-10-22T06:46:31;99804.50;;;12.32;100.00
10638;BME280;47007;49.252;8.904;2022-10-22T06:49:00;99822.66;;;12.28;100.00
10638;BME280;47007;49.252;8.904;2022-10-22T06:51:28;99807.34;;;12.30;100.00
10638;BME280;47007;49.252;8.904;2022-10-22T06:53:55;99815.06;;;12.25;100.00
10638;BME280;47007;49.252;8.904;2022-10-22T06:56:25;99821.19;;;12.19;100.00
10638;BME280;47007;49.252;8.904;2022-10-22T06:58:54;99820.38;;;12.25;100.00
10638;BME280;47007;49.252;8.904;2022-10-22T07:01:23;99824.94;;;12.31;100.00
10638;BME280;47007;49.252;8.904;2022-10-22T07:03:51;99826.81;;;12.37;100.00
10638;BME280;47007;49.252;8.904;2022-10-22T07:06:18;99806.78;;;12.35;100.00
10638;BME280;47007;49.252;8.904;2022-10-22T07:08:45;99824.97;;;12.38;100.00
10638;BME280;47007;49.252;8.904;2022-10-22T07:13:40;99816.69;;;12.54;100.00
10638;BME280;47007;49.252;8.904;2022-10-22T07:16:08;99835.97;;;12.63;100.00
10638;BME280;47007;49.252;8.904;2022-10-22T07:18:36;99835.19;;;12.69;100.00
10638;BME280;47007;49.252;8.904;2022-10-22T07:21:03;99822.53;;;12.71;100.00
10638;BME280;47007;49.252;8.904;2022-10-22T07:23:30;99839.59;;;12.89;100.00
10638;BME280;47007;49.252;8.904;2022-10-22T07:25:57;99864.53;;;12.88;100.00
10638;BME280;47007;49.252;8.904;2022-10-22T07:28:24;99853.88;;;12.82;100.00
10638;BME280;47007;49.252;8.904;2022-10-22T07:30:51;99839.50;;;12.70;100.00
10638;BME280;47007;49.252;8.904;2022-10-22T07:33:18;99853.69;;;12.83;100.00
10638;BME280;47007;49.252;8.904;2022-10-22T07:35:44;99849.84;;;12.99;100.00
10638;BME280;47007;49.252;8.904;2022-10-22T07:38:11;99870.84;;;13.15;100.00
10638;BME280;47007;49.252;8.904;2022-10-22T07:40:38;99861.94;;;13.43;100.00
10638;BME280;47007;49.252;8.904;2022-10-22T07:43:05;99843.38;;;13.82;100.00
10638;BME280;47007;49.252;8.904;2022-10-22T07:45:32;99841.53;;;14.16;100.00
10638;BME280;47007;49.252;8.904;2022-10-22T07:47:59;99802.34;;;14.36;100.00
10638;BME280;47007;49.252;8.904;2022-10-22T07:50:27;99840.03;;;14.72;100.00
10638;BME280;47007;49.252;8.904;2022-10-22T07:52:54;99831.28;;;15.10;100.00
10638;BME280;47007;49.252;8.904;2022-10-22T07:55:24;99843.91;;;15.34;100.00
10638;BME280;47007;49.252;8.904;2022-10-22T07:57:50;99836.78;;;15.66;100.00
10638;BME280;47007;49.252;8.904;2022-10-22T08:00:18;99842.97;;;16.16;100.00
10638;BME280;47007;49.252;8.904;2022-10-22T08:02:51;99808.41;;;16.40;100.00
10638;BME280;47007;49.252;8.904;2022-10-22T08:05:17;99834.84;;;16.91;100.00
10638;BME280;47007;49.252;8.904;2022-10-22T08:07:44;99705.16;;;16.32;100.00
10638;BME280;47007;49.252;8.904;2022-10-22T08:10:11;99758.16;;;16.97;100.00
10638;BME280;47007;49.252;8.904;2022-10-22T08:12:39;99818.25;;;17.60;100.00
10638;BME280;47007;49.252;8.904;2022-10-22T08:15:07;99790.09;;;17.70;100.00
10638;BME280;47007;49.252;8.904;2022-10-22T08:17:34;99778.09;;;17.72;100.00
10638;BME280;47007;49.252;8.904;2022-10-22T08:20:01;99784.28;;;17.73;100.00
10638;BME280;47007;49.252;8.904;2022-10-22T08:22:27;99779.81;;;17.55;100.00
10638;BME280;47007;49.252;8.904;2022-10-22T08:24:54;99801.75;;;17.64;100.00
10638;BME280;47007;49.252;8.904;2022-10-22T08:27:21;99778.00;;;17.79;100.00
10638;BME280;47007;49.252;8.904;2022-10-22T08:29:47;99778.25;;;18.12;100.00
10638;BME280;47007;49.252;8.904;2022-10-22T08:32:14;99805.53;;;18.56;100.00
10638;BME280;47007;49.252;8.904;2022-10-22T08:34:41;99779.03;;;18.71;100.00
10638;BME280;47007;49.252;8.904;2022-10-22T08:37:07;99761.75;;;18.55;100.00
10638;BME280;47007;49.252;8.904;2022-10-22T08:39:35;99776.16;;;18.14;100.00
10638;BME280;47007;49.252;8.904;2022-10-22T08:45:16;99803.38;;;17.65;100.00
10638;BME280;47007;49.252;8.904;2022-10-22T08:50:18;99710.97;;;18.14;100.00
10638;BME280;47007;49.252;8.904;2022-10-22T08:52:51;99780.69;;;18.72;100.00
10638;BME280;47007;49.252;8.904;2022-10-22T08:55:22;99767.38;;;18.54;100.00
10638;BME280;47007;49.252;8.904;2022-10-22T08:58:10;99763.91;;;18.65;100.00
10638;BME280;47007;49.252;8.904;2022-10-22T09:01:05;99773.19;;;18.74;100.00
10638;BME280;47007;49.252;8.904;2022-10-22T09:06:17;99768.88;;;18.73;100.00
10638;BME280;47007;49.252;8.904;2022-10-22T09:08:46;99776.31;;;18.83;100.00
10638;BME280;47007;49.252;8.904;2022-10-22T09:11:19;99743.63;;;19.14;100.00
10638;BME280;47007;49.252;8.904;2022-10-22T09:13:48;99768.69;;;19.77;100.00
10638;BME280;47007;49.252;8.904;2022-10-22T09:16:26;99776.34;;;20.01;100.00
10638;BME280;47007;49.252;8.904;2022-10-22T09:19:06;99770.47;;;19.88;100.00
10638;BME280;47007;49.252;8.904;2022-10-22T09:26:59;99782.78;;;19.10;100.00
10638;BME280;47007;49.252;8.904;2022-10-22T09:29:32;99784.56;;;19.61;100.00
10638;BME280;47007;49.252;8.904;2022-10-22T09:31:59;99782.41;;;20.30;100.00
10638;BME280;47007;49.252;8.904;2022-10-22T09:34:28;99774.00;;;20.65;100.00
10638;BME280;47007;49.252;8.904;2022-10-22T09:37:05;99791.66;;;20.56;100.00
10638;BME280;47007;49.252;8.904;2022-10-22T09:39:40;99789.34;;;20.26;100.00
10638;BME280;47007;49.252;8.904;2022-10-22T09:42:10;99782.16;;;20.32;100.00
10638;BME280;47007;49.252;8.904;2022-10-22T09:44:39;99811.28;;;20.18;100.00
10638;BME280;47007;49.252;8.904;2022-10-22T09:47:39;99805.50;;;18.79;100.00
10638;BME280;47007;49.252;8.904;2022-10-22T09:53:05;99785.50;;;18.00;100.00
10638;BME280;47007;49.252;8.904;2022-10-22T09:55:39;99816.41;;;18.14;100.00
10638;BME280;47007;49.252;8.904;2022-10-22T09:58:12;99837.66;;;18.74;100.00
10638;BME280;47007;49.252;8.904;2022-10-22T10:00:43;99828.69;;;19.09;100.00
10638;BME280;47007;49.252;8.904;2022-10-22T10:03:19;99827.09;;;19.64;100.00
10638;BME280;47007;49.252;8.904;2022-10-22T10:05:52;99830.13;;;19.85;100.00
10638;BME280;47007;49.252;8.904;2022-10-22T10:08:21;99814.81;;;20.35;100.00
10638;BME280;47007;49.252;8.904;2022-10-22T10:11:13;99837.66;;;21.15;100.00
10638;BME280;47007;49.252;8.904;2022-10-22T10:14:01;99838.19;;;21.34;100.00
10638;BME280;47007;49.252;8.904;2022-10-22T10:19:35;99836.22;;;20.64;100.00
10638;BME280;47007;49.252;8.904;2022-10-22T10:22:40;99841.66;;;20.69;100.00
10638;BME280;47007;49.252;8.904;2022-10-22T10:27:47;99834.94;;;20.88;100.00
10638;BME280;47007;49.252;8.904;2022-10-22T10:30:19;99792.88;;;20.87;100.00
10638;BME280;47007;49.252;8.904;2022-10-22T10:40:58;99849.72;;;21.29;100.00
10638;BME280;47007;49.252;8.904;2022-10-22T10:49:24;99851.97;;;21.15;100.00
10638;BME280;47007;49.252;8.904;2022-10-22T10:52:20;99845.09;;;21.51;100.00
10638;BME280;47007;49.252;8.904;2022-10-22T10:55:06;99849.72;;;21.51;100.00
10638;BME280;47007;49.252;8.904;2022-10-22T11:00:22;99824.91;;;21.54;100.00
10638;BME280;47007;49.252;8.904;2022-10-22T11:19:06;99851.13;;;22.17;100.00
10638;BME280;47007;49.252;8.904;2022-10-22T11:21:58;99847.75;;;22.32;100.00
10638;BME280;47007;49.252;8.904;2022-10-22T11:24:54;99849.41;;;22.38;100.00
10638;BME280;47007;49.252;8.904;2022-10-22T11:27:41;99849.19;;;22.87;100.00
10638;BME280;47007;49.252;8.904;2022-10-22T11:32:40;99861.81;;;22.76;100.00
10638;BME280;47007;49.252;8.904;2022-10-22T11:35:13;99836.34;;;22.67;100.00
10638;BME280;47007;49.252;8.904;2022-10-22T11:37:43;99761.28;;;22.27;100.00
10638;BME280;47007;49.252;8.904;2022-10-22T11:40:31;99818.75;;;22.60;100.00
10638;BME280;47007;49.252;8.904;2022-10-22T11:43:09;99821.88;;;22.88;100.00
10638;BME280;47007;49.252;8.904;2022-10-22T11:45:39;99834.38;;;22.52;100.00
10638;BME280;47007;49.252;8.904;2022-10-22T11:48:15;99834.16;;;22.59;100.00
10638;BME280;47007;49.252;8.904;2022-10-22T12:01:23;99806.84;;;22.55;100.00
10638;BME280;47007;49.252;8.904;2022-10-22T12:06:25;99827.06;;;22.95;100.00
10638;BME280;47007;49.252;8.904;2022-10-22T12:08:55;99832.69;;;22.88;100.00
10638;BME280;47007;49.252;8.904;2022-10-22T12:11:40;99835.75;;;23.07;100.00
10638;BME280;47007;49.252;8.904;2022-10-22T12:14:22;99826.91;;;23.22;100.00
10638;BME280;47007;49.252;8.904;2022-10-22T12:19:44;99813.31;;;22.49;100.00
10638;BME280;47007;49.252;8.904;2022-10-22T12:24:46;99765.91;;;21.95;100.00
10638;BME280;47007;49.252;8.904;2022-10-22T12:29:53;99807.34;;;22.52;100.00
10638;BME280;47007;49.252;8.904;2022-10-22T12:32:23;99820.13;;;22.67;100.00
10638;BME280;47007;49.252;8.904;2022-10-22T12:34:51;99804.03;;;22.82;100.00
10638;BME280;47007;49.252;8.904;2022-10-22T12:37:19;99815.25;;;23.21;100.00
10638;BME280;47007;49.252;8.904;2022-10-22T12:39:46;99810.09;;;23.15;100.00
10638;BME280;47007;49.252;8.904;2022-10-22T12:42:15;99814.19;;;23.22;100.00
10638;BME280;47007;49.252;8.904;2022-10-22T12:44:43;99802.41;;;22.81;100.00
10638;BME280;47007;49.252;8.904;2022-10-22T12:47:15;99802.06;;;22.73;100.00
10638;BME280;47007;49.252;8.904;2022-10-22T12:49:45;99803.63;;;22.58;100.00
10638;BME280;47007;49.252;8.904;2022-10-22T12:52:21;99791.09;;;22.37;100.00
10638;BME280;47007;49.252;8.904;2022-10-22T12:54:50;99787.81;;;22.35;100.00
10638;BME280;47007;49.252;8.904;2022-10-22T12:57:19;99796.88;;;22.61;100.00
10638;BME280;47007;49.252;8.904;2022-10-22T12:59:48;99804.66;;;22.52;100.00
10638;BME280;47007;49.252;8.904;2022-10-22T13:02:22;99791.75;;;22.17;100.00
10638;BME280;47007;49.252;8.904;2022-10-22T13:12:50;99745.16;;;21.09;100.00
10638;BME280;47007;49.252;8.904;2022-10-22T13:17:48;99803.19;;;21.66;100.00
10638;BME280;47007;49.252;8.904;2022-10-22T13:20:22;99777.06;;;21.71;100.00
10638;BME280;47007;49.252;8.904;2022-10-22T13:23:02;99806.09;;;21.91;100.00
10638;BME280;47007;49.252;8.904;2022-10-22T13:25:33;99788.50;;;22.15;100.00
10638;BME280;47007;49.252;8.904;2022-10-22T13:28:17;99797.53;;;22.78;100.00
10638;BME280;47007;49.252;8.904;2022-10-22T13:31:07;99803.72;;;23.56;100.00
10638;BME280;47007;49.252;8.904;2022-10-22T13:33:40;99795.91;;;23.85;100.00
10638;BME280;47007;49.252;8.904;2022-10-22T13:36:10;99776.66;;;23.51;100.00
10638;BME280;47007;49.252;8.904;2022-10-22T13:38:38;99792.94;;;23.72;100.00
10638;BME280;47007;49.252;8.904;2022-10-22T13:41:18;99796.31;;;23.11;100.00
10638;BME280;47007;49.252;8.904;2022-10-22T13:43:45;99781.94;;;23.01;100.00
10638;BME280;47007;49.252;8.904;2022-10-22T13:46:11;99782.44;;;22.40;100.00
10638;BME280;47007;49.252;8.904;2022-10-22T13:48:38;99797.56;;;22.41;100.00
10638;BME280;47007;49.252;8.904;2022-10-22T13:51:13;99791.59;;;21.97;100.00
10638;BME280;47007;49.252;8.904;2022-10-22T13:53:41;99786.56;;;21.79;100.00
10638;BME280;47007;49.252;8.904;2022-10-22T13:56:15;99792.69;;;21.37;100.00
10638;BME280;47007;49.252;8.904;2022-10-22T13:58:44;99799.06;;;21.09;100.00
10638;BME280;47007;49.252;8.904;2022-10-22T14:01:22;99784.47;;;21.05;100.00
10638;BME280;47007;49.252;8.904;2022-10-22T14:03:52;99779.84;;;21.01;100.00
10638;BME280;47007;49.252;8.904;2022-10-22T14:06:20;99741.06;;;20.80;100.00
10638;BME280;47007;49.252;8.904;2022-10-22T14:08:52;99786.19;;;21.16;100.00
10638;BME280;47007;49.252;8.904;2022-10-22T14:11:20;99746.88;;;20.94;100.00
10638;BME280;47007;49.252;8.904;2022-10-22T14:13:47;99772.84;;;21.00;100.00
10638;BME280;47007;49.252;8.904;2022-10-22T14:16:22;99768.25;;;21.00;100.00
10638;BME280;47007;49.252;8.904;2022-10-22T14:18:50;99748.97;;;20.87;100.00
10638;BME280;47007;49.252;8.904;2022-10-22T14:21:17;99722.66;;;20.72;100.00
10638;BME280;47007;49.252;8.904;2022-10-22T14:23:45;99781.72;;;21.00;100.00
10638;BME280;47007;49.252;8.904;2022-10-22T14:26:27;99740.34;;;20.63;100.00
10638;BME280;47007;49.252;8.904;2022-10-22T14:28:56;99761.34;;;20.66;100.00
10638;BME280;47007;49.252;8.904;2022-10-22T14:31:40;99767.44;;;20.56;100.00
10638;BME280;47007;49.252;8.904;2022-10-22T14:34:10;99753.84;;;20.46;100.00
10638;BME280;47007;49.252;8.904;2022-10-22T14:36:37;99757.69;;;20.50;100.00
10638;BME280;47007;49.252;8.904;2022-10-22T14:39:04;99716.41;;;20.28;100.00
10638;BME280;47007;49.252;8.904;2022-10-22T14:41:31;99721.00;;;20.27;100.00
10638;BME280;47007;49.252;8.904;2022-10-22T14:43:57;99733.44;;;20.33;100.00
10638;BME280;47007;49.252;8.904;2022-10-22T14:46:25;99721.25;;;20.26;100.00
10638;BME280;47007;49.252;8.904;2022-10-22T14:48:52;99752.75;;;20.64;100.00
10638;BME280;47007;49.252;8.904;2022-10-22T14:51:20;99782.72;;;20.72;100.00
10638;BME280;47007;49.252;8.904;2022-10-22T14:53:47;99756.03;;;20.49;100.00
10638;BME280;47007;49.252;8.904;2022-10-22T14:56:18;99764.81;;;20.61;100.00